sensor_id;sensor_type;location;lat;lon;timestamp;P1;durP1;ratioP1;P2;durP2;ratioP2
75993;SDS011;64680;53.800;9.988;2024-01-30T00:02:16;11.25;;;7.07;;
75993;SDS011;64680;53.800;9.988;2024-01-30T00:04:41;12.40;;;7.18;;
75993;SDS011;64680;53.800;9.988;2024-01-30T00:07:07;13.15;;;7.13;;
75993;SDS011;64680;53.800;9.988;2024-01-30T00:09:33;11.02;;;6.72;;
75993;SDS011;64680;53.800;9.988;2024-01-30T00:11:58;12.02;;;6.70;;
75993;SDS011;64680;53.800;9.988;2024-01-30T00:14:24;14.13;;;7.32;;
75993;SDS011;64680;53.800;9.988;2024-01-30T00:16:52;14.43;;;7.10;;
75993;SDS011;64680;53.800;9.988;2024-01-30T00:19:18;14.32;;;8.00;;
75993;SDS011;64680;53.800;9.988;2024-01-30T00:21:44;13.93;;;7.50;;
75993;SDS011;64680;53.800;9.988;2024-01-30T00:24:09;12.07;;;7.22;;
75993;SDS011;64680;53.800;9.988;2024-01-30T00:26:35;13.63;;;7.55;;
75993;SDS011;64680;53.800;9.988;2024-01-30T00:29:01;13.45;;;7.30;;
75993;SDS011;64680;53.800;9.988;2024-01-30T00:31:27;14.45;;;7.88;;
75993;SDS011;64680;53.800;9.988;2024-01-30T00:33:52;12.90;;;7.32;;
75993;SDS011;64680;53.800;9.988;2024-01-30T00:36:18;14.07;;;8.20;;
75993;SDS011;64680;53.800;9.988;2024-01-30T00:38:43;13.20;;;7.53;;
75993;SDS011;64680;53.800;9.988;2024-01-30T00:41:09;14.60;;;7.60;;
75993;SDS011;64680;53.800;9.988;2024-01-30T00:43:35;13.85;;;8.18;;
75993;SDS011;64680;53.800;9.988;2024-01-30T00:46:01;17.40;;;7.95;;
75993;SDS011;64680;53.800;9.988;2024-01-30T00:48:26;11.32;;;7.05;;
75993;SDS011;64680;53.800;9.988;2024-01-30T00:50:52;12.55;;;7.72;;
75993;SDS011;64680;53.800;9.988;2024-01-30T00:53:18;13.13;;;7.40;;
75993;SDS011;64680;53.800;9.988;2024-01-30T00:55:43;13.00;;;7.13;;
75993;SDS011;64680;53.800;9.988;2024-01-30T00:58:09;14.65;;;6.88;;
75993;SDS011;64680;53.800;9.988;2024-01-30T01:00:34;14.38;;;7.97;;
75993;SDS011;64680;53.800;9.988;2024-01-30T01:03:00;16.27;;;7.82;;
75993;SDS011;64680;53.800;9.988;2024-01-30T01:05:26;13.68;;;7.80;;
75993;SDS011;64680;53.800;9.988;2024-01-30T01:07:52;12.93;;;7.25;;
75993;SDS011;64680;53.800;9.988;2024-01-30T01:10:18;15.77;;;7.57;;
75993;SDS011;64680;53.800;9.988;2024-01-30T01:12:44;12.57;;;7.18;;
75993;SDS011;64680;53.800;9.988;2024-01-30T01:15:10;11.93;;;7.30;;
75993;SDS011;64680;53.800;9.988;2024-01-30T01:17:36;13.98;;;7.72;;
75993;SDS011;64680;53.800;9.988;2024-01-30T01:20:02;12.60;;;7.18;;
75993;SDS011;64680;53.800;9.988;2024-01-30T01:22:30;14.43;;;7.72;;
75993;SDS011;64680;53.800;9.988;2024-01-30T01:24:56;12.10;;;6.95;;
75993;SDS011;64680;53.800;9.988;2024-01-30T01:27:21;12.75;;;7.43;;
75993;SDS011;64680;53.800;9.988;2024-01-30T01:29:47;12.93;;;7.30;;
75993;SDS011;64680;53.800;9.988;2024-01-30T01:32:12;12.23;;;7.47;;
75993;SDS011;64680;53.800;9.988;2024-01-30T01:34:38;15.07;;;7.85;;
75993;SDS011;64680;53.800;9.988;2024-01-30T01:37:04;12.80;;;7.47;;
75993;SDS011;64680;53.800;9.988;2024-01-30T01:39:29;13.35;;;7.47;;
75993;SDS011;64680;53.800;9.988;2024-01-30T01:41:55;14.43;;;6.97;;
75993;SDS011;64680;53.800;9.988;2024-01-30T01:44:20;14.43;;;7.68;;
75993;SDS011;64680;53.800;9.988;2024-01-30T01:46:46;12.82;;;7.10;;
75993;SDS011;64680;53.800;9.988;2024-01-30T01:49:12;12.98;;;7.28;;
75993;SDS011;64680;53.800;9.988;2024-01-30T01:51:39;11.27;;;6.65;;
75993;SDS011;64680;53.800;9.988;2024-01-30T01:54:06;13.30;;;7.03;;
75993;SDS011;64680;53.800;9.988;2024-01-30T01:56:33;13.18;;;7.72;;
75993;SDS011;64680;53.800;9.988;2024-01-30T01:59:00;11.80;;;6.88;;
75993;SDS011;64680;53.800;9.988;2024-01-30T02:01:30;13.18;;;8.52;;
75993;SDS011;64680;53.800;9.988;2024-01-30T02:03:58;13.02;;;7.20;;
75993;SDS011;64680;53.800;9.988;2024-01-30T02:06:27;10.60;;;6.45;;
75993;SDS011;64680;53.800;9.988;2024-01-30T02:08:53;12.93;;;6.82;;
75993;SDS011;64680;53.800;9.988;2024-01-30T02:11:19;14.02;;;6.97;;
75993;SDS011;64680;53.800;9.988;2024-01-30T02:13:45;13.85;;;6.82;;
75993;SDS011;64680;53.800;9.988;2024-01-30T02:16:11;11.77;;;6.55;;
75993;SDS011;64680;53.800;9.988;2024-01-30T02:18:37;12.20;;;6.53;;
75993;SDS011;64680;53.800;9.988;2024-01-30T02:21:07;15.15;;;7.40;;
75993;SDS011;64680;53.800;9.988;2024-01-30T02:23:33;11.00;;;6.80;;
75993;SDS011;64680;53.800;9.988;2024-01-30T02:25:59;11.25;;;6.70;;
75993;SDS011;64680;53.800;9.988;2024-01-30T02:28:25;10.98;;;6.78;;
75993;SDS011;64680;53.800;9.988;2024-01-30T02:30:52;11.70;;;6.05;;
75993;SDS011;64680;53.800;9.988;2024-01-30T02:33:18;13.05;;;7.28;;
75993;SDS011;64680;53.800;9.988;2024-01-30T02:35:44;12.00;;;6.93;;
75993;SDS011;64680;53.800;9.988;2024-01-30T02:38:09;12.77;;;7.15;;
75993;SDS011;64680;53.800;9.988;2024-01-30T02:40:35;11.88;;;6.53;;
75993;SDS011;64680;53.800;9.988;2024-01-30T02:43:01;10.82;;;6.20;;
75993;SDS011;64680;53.800;9.988;2024-01-30T02:45:28;12.07;;;6.75;;
75993;SDS011;64680;53.800;9.988;2024-01-30T02:47:53;11.48;;;6.40;;
75993;SDS011;64680;53.800;9.988;2024-01-30T02:50:19;9.77;;;6.38;;
75993;SDS011;64680;53.800;9.988;2024-01-30T02:52:44;11.43;;;6.68;;
75993;SDS011;64680;53.800;9.988;2024-01-30T02:55:10;11.40;;;6.72;;
75993;SDS011;64680;53.800;9.988;2024-01-30T02:57:36;12.57;;;6.88;;
75993;SDS011;64680;53.800;9.988;2024-01-30T03:00:02;11.52;;;6.68;;
75993;SDS011;64680;53.800;9.988;2024-01-30T03:02:29;11.23;;;6.60;;
75993;SDS011;64680;53.800;9.988;2024-01-30T03:04:54;11.00;;;6.82;;
75993;SDS011;64680;53.800;9.988;2024-01-30T03:07:20;12.85;;;6.90;;
75993;SDS011;64680;53.800;9.988;2024-01-30T03:09:45;12.30;;;7.10;;
75993;SDS011;64680;53.800;9.988;2024-01-30T03:12:11;12.05;;;6.93;;
75993;SDS011;64680;53.800;9.988;2024-01-30T03:14:36;10.25;;;6.18;;
75993;SDS011;64680;53.800;9.988;2024-01-30T03:17:02;13.20;;;6.43;;
75993;SDS011;64680;53.800;9.988;2024-01-30T03:19:28;11.55;;;6.72;;
75993;SDS011;64680;53.800;9.988;2024-01-30T03:21:53;12.15;;;7.25;;
75993;SDS011;64680;53.800;9.988;2024-01-30T03:24:19;12.02;;;6.45;;
75993;SDS011;64680;53.800;9.988;2024-01-30T03:26:45;13.60;;;6.43;;
75993;SDS011;64680;53.800;9.988;2024-01-30T03:29:10;11.85;;;6.90;;
75993;SDS011;64680;53.800;9.988;2024-01-30T03:31:36;11.38;;;6.50;;
75993;SDS011;64680;53.800;9.988;2024-01-30T03:34:01;10.10;;;6.38;;
75993;SDS011;64680;53.800;9.988;2024-01-30T03:36:27;12.00;;;7.10;;
75993;SDS011;64680;53.800;9.988;2024-01-30T03:38:53;9.88;;;6.22;;
75993;SDS011;64680;53.800;9.988;2024-01-30T03:41:19;12.85;;;6.43;;
75993;SDS011;64680;53.800;9.988;2024-01-30T03:43:44;9.98;;;6.78;;
75993;SDS011;64680;53.800;9.988;2024-01-30T03:46:11;9.65;;;6.07;;
75993;SDS011;64680;53.800;9.988;2024-01-30T03:48:37;12.85;;;6.80;;
75993;SDS011;64680;53.800;9.988;2024-01-30T03:51:04;15.25;;;7.22;;
75993;SDS011;64680;53.800;9.988;2024-01-30T03:53:30;11.98;;;7.55;;
75993;SDS011;64680;53.800;9.988;2024-01-30T03:55:55;11.48;;;6.40;;
75993;SDS011;64680;53.800;9.988;2024-01-30T03:58:21;11.60;;;6.63;;
75993;SDS011;64680;53.800;9.988;2024-01-30T04:00:47;10.65;;;6.65;;
75993;SDS011;64680;53.800;9.988;2024-01-30T04:03:14;11.80;;;6.60;;
75993;SDS011;64680;53.800;9.988;2024-01-30T04:05:43;10.57;;;5.63;;
75993;SDS011;64680;53.800;9.988;2024-01-30T04:08:10;11.60;;;6.28;;
75993;SDS011;64680;53.800;9.988;2024-01-30T04:10:35;10.50;;;6.22;;
75993;SDS011;64680;53.800;9.988;2024-01-30T04:13:01;11.73;;;6.68;;
75993;SDS011;64680;53.800;9.988;2024-01-30T04:15:26;10.60;;;5.78;;
75993;SDS011;64680;53.800;9.988;2024-01-30T04:17:54;9.27;;;6.25;;
75993;SDS011;64680;53.800;9.988;2024-01-30T04:20:23;12.90;;;6.82;;
75993;SDS011;64680;53.800;9.988;2024-01-30T04:22:48;9.57;;;6.03;;
75993;SDS011;64680;53.800;9.988;2024-01-30T04:25:14;12.77;;;6.97;;
75993;SDS011;64680;53.800;9.988;2024-01-30T04:27:40;11.30;;;6.50;;
75993;SDS011;64680;53.800;9.988;2024-01-30T04:30:05;10.13;;;6.20;;
75993;SDS011;64680;53.800;9.988;2024-01-30T04:32:32;9.70;;;6.65;;
75993;SDS011;64680;53.800;9.988;2024-01-30T04:34:59;16.27;;;7.25;;
75993;SDS011;64680;53.800;9.988;2024-01-30T04:37:24;12.07;;;6.75;;
75993;SDS011;64680;53.800;9.988;2024-01-30T04:39:50;10.63;;;6.70;;
75993;SDS011;64680;53.800;9.988;2024-01-30T04:42:16;11.45;;;6.70;;
75993;SDS011;64680;53.800;9.988;2024-01-30T04:44:42;12.15;;;6.15;;
75993;SDS011;64680;53.800;9.988;2024-01-30T04:47:07;12.65;;;6.88;;
75993;SDS011;64680;53.800;9.988;2024-01-30T04:49:35;13.75;;;7.20;;
75993;SDS011;64680;53.800;9.988;2024-01-30T04:52:00;13.43;;;6.78;;
75993;SDS011;64680;53.800;9.988;2024-01-30T04:54:26;13.90;;;7.45;;
75993;SDS011;64680;53.800;9.988;2024-01-30T04:56:52;13.75;;;7.50;;
75993;SDS011;64680;53.800;9.988;2024-01-30T04:59:17;11.73;;;6.72;;
75993;SDS011;64680;53.800;9.988;2024-01-30T05:01:43;13.32;;;7.47;;
75993;SDS011;64680;53.800;9.988;2024-01-30T05:04:08;11.57;;;6.75;;
75993;SDS011;64680;53.800;9.988;2024-01-30T05:06:34;10.75;;;6.57;;
75993;SDS011;64680;53.800;9.988;2024-01-30T05:09:00;13.77;;;7.07;;
75993;SDS011;64680;53.800;9.988;2024-01-30T05:11:25;14.85;;;7.45;;
75993;SDS011;64680;53.800;9.988;2024-01-30T05:13:51;12.27;;;6.75;;
75993;SDS011;64680;53.800;9.988;2024-01-30T05:16:17;15.95;;;8.10;;
75993;SDS011;64680;53.800;9.988;2024-01-30T05:18:43;12.85;;;7.65;;
75993;SDS011;64680;53.800;9.988;2024-01-30T05:21:08;10.93;;;7.43;;
75993;SDS011;64680;53.800;9.988;2024-01-30T05:23:35;16.77;;;7.20;;
75993;SDS011;64680;53.800;9.988;2024-01-30T05:26:01;13.57;;;7.55;;
75993;SDS011;64680;53.800;9.988;2024-01-30T05:28:27;11.55;;;7.20;;
75993;SDS011;64680;53.800;9.988;2024-01-30T05:30:56;13.63;;;7.40;;
75993;SDS011;64680;53.800;9.988;2024-01-30T05:33:21;13.13;;;7.60;;
75993;SDS011;64680;53.800;9.988;2024-01-30T05:35:47;15.23;;;7.65;;
75993;SDS011;64680;53.800;9.988;2024-01-30T05:38:13;13.35;;;7.38;;
75993;SDS011;64680;53.800;9.988;2024-01-30T05:40:40;14.43;;;8.20;;
75993;SDS011;64680;53.800;9.988;2024-01-30T05:43:06;14.50;;;7.38;;
75993;SDS011;64680;53.800;9.988;2024-01-30T05:45:32;15.80;;;8.95;;
75993;SDS011;64680;53.800;9.988;2024-01-30T05:47:59;13.27;;;8.00;;
75993;SDS011;64680;53.800;9.988;2024-01-30T05:50:24;14.75;;;7.85;;
75993;SDS011;64680;53.800;9.988;2024-01-30T05:52:51;13.27;;;8.15;;
75993;SDS011;64680;53.800;9.988;2024-01-30T05:55:17;16.80;;;7.80;;
75993;SDS011;64680;53.800;9.988;2024-01-30T05:57:42;13.65;;;7.85;;
75993;SDS011;64680;53.800;9.988;2024-01-30T06:00:08;14.18;;;7.45;;
75993;SDS011;64680;53.800;9.988;2024-01-30T06:02:33;12.48;;;7.57;;
75993;SDS011;64680;53.800;9.988;2024-01-30T06:04:59;11.27;;;7.28;;
75993;SDS011;64680;53.800;9.988;2024-01-30T06:07:25;12.75;;;7.43;;
75993;SDS011;64680;53.800;9.988;2024-01-30T06:09:50;12.32;;;7.13;;
75993;SDS011;64680;53.800;9.988;2024-01-30T06:12:16;13.35;;;7.47;;
75993;SDS011;64680;53.800;9.988;2024-01-30T06:14:41;12.63;;;7.07;;
75993;SDS011;64680;53.800;9.988;2024-01-30T06:17:07;15.68;;;8.43;;
75993;SDS011;64680;53.800;9.988;2024-01-30T06:19:34;14.30;;;8.48;;
75993;SDS011;64680;53.800;9.988;2024-01-30T06:21:59;12.90;;;7.85;;
75993;SDS011;64680;53.800;9.988;2024-01-30T06:24:25;13.75;;;8.57;;
75993;SDS011;64680;53.800;9.988;2024-01-30T06:26:52;13.75;;;6.97;;
75993;SDS011;64680;53.800;9.988;2024-01-30T06:29:18;12.23;;;7.47;;
75993;SDS011;64680;53.800;9.988;2024-01-30T06:31:43;17.55;;;7.78;;
75993;SDS011;64680;53.800;9.988;2024-01-30T06:34:09;14.38;;;8.32;;
75993;SDS011;64680;53.800;9.988;2024-01-30T06:36:36;14.10;;;8.57;;
75993;SDS011;64680;53.800;9.988;2024-01-30T06:39:02;16.33;;;8.15;;
75993;SDS011;64680;53.800;9.988;2024-01-30T06:41:28;12.80;;;7.90;;
75993;SDS011;64680;53.800;9.988;2024-01-30T06:43:54;15.18;;;8.10;;
75993;SDS011;64680;53.800;9.988;2024-01-30T06:46:22;13.70;;;7.85;;
75993;SDS011;64680;53.800;9.988;2024-01-30T06:48:48;12.32;;;7.45;;
75993;SDS011;64680;53.800;9.988;2024-01-30T06:51:13;13.27;;;8.30;;
75993;SDS011;64680;53.800;9.988;2024-01-30T06:53:39;14.90;;;8.13;;
75993;SDS011;64680;53.800;9.988;2024-01-30T06:56:05;13.50;;;8.25;;
75993;SDS011;64680;53.800;9.988;2024-01-30T06:58:31;13.85;;;8.20;;
75993;SDS011;64680;53.800;9.988;2024-01-30T07:00:57;12.70;;;7.68;;
75993;SDS011;64680;53.800;9.988;2024-01-30T07:03:23;15.48;;;7.90;;
75993;SDS011;64680;53.800;9.988;2024-01-30T07:05:48;14.18;;;8.60;;
75993;SDS011;64680;53.800;9.988;2024-01-30T07:08:15;14.68;;;8.20;;
75993;SDS011;64680;53.800;9.988;2024-01-30T07:10:42;16.10;;;8.65;;
75993;SDS011;64680;53.800;9.988;2024-01-30T07:15:36;14.73;;;7.97;;
75993;SDS011;64680;53.800;9.988;2024-01-30T07:18:02;14.35;;;8.00;;
75993;SDS011;64680;53.800;9.988;2024-01-30T07:20:29;18.65;;;9.70;;
75993;SDS011;64680;53.800;9.988;2024-01-30T07:22:56;13.82;;;8.18;;
75993;SDS011;64680;53.800;9.988;2024-01-30T07:27:52;13.57;;;7.88;;
75993;SDS011;64680;53.800;9.988;2024-01-30T07:30:18;15.63;;;8.10;;
75993;SDS011;64680;53.800;9.988;2024-01-30T07:32:44;16.30;;;8.48;;
75993;SDS011;64680;53.800;9.988;2024-01-30T07:35:10;16.80;;;9.02;;
75993;SDS011;64680;53.800;9.988;2024-01-30T07:37:36;15.65;;;9.10;;
75993;SDS011;64680;53.800;9.988;2024-01-30T07:40:02;15.20;;;8.43;;
75993;SDS011;64680;53.800;9.988;2024-01-30T07:42:28;17.67;;;10.00;;
75993;SDS011;64680;53.800;9.988;2024-01-30T07:44:53;15.93;;;9.13;;
75993;SDS011;64680;53.800;9.988;2024-01-30T07:47:19;17.75;;;10.05;;
75993;SDS011;64680;53.800;9.988;2024-01-30T07:49:44;17.60;;;9.23;;
75993;SDS011;64680;53.800;9.988;2024-01-30T07:52:10;14.40;;;8.65;;
75993;SDS011;64680;53.800;9.988;2024-01-30T07:54:39;14.68;;;8.68;;
75993;SDS011;64680;53.800;9.988;2024-01-30T07:57:07;16.70;;;8.95;;
75993;SDS011;64680;53.800;9.988;2024-01-30T07:59:33;16.92;;;9.30;;
75993;SDS011;64680;53.800;9.988;2024-01-30T08:01:59;17.23;;;8.98;;
75993;SDS011;64680;53.800;9.988;2024-01-30T08:04:24;15.00;;;9.02;;
75993;SDS011;64680;53.800;9.988;2024-01-30T08:06:50;14.93;;;8.20;;
75993;SDS011;64680;53.800;9.988;2024-01-30T08:09:15;14.77;;;8.73;;
75993;SDS011;64680;53.800;9.988;2024-01-30T08:11:41;14.00;;;8.15;;
75993;SDS011;64680;53.800;9.988;2024-01-30T08:14:06;14.63;;;8.65;;
75993;SDS011;64680;53.800;9.988;2024-01-30T08:16:32;15.18;;;8.65;;
75993;SDS011;64680;53.800;9.988;2024-01-30T08:18:58;15.55;;;8.32;;
75993;SDS011;64680;53.800;9.988;2024-01-30T08:21:23;15.32;;;8.57;;
75993;SDS011;64680;53.800;9.988;2024-01-30T08:23:49;15.45;;;8.85;;
75993;SDS011;64680;53.800;9.988;2024-01-30T08:26:14;15.05;;;8.90;;
75993;SDS011;64680;53.800;9.988;2024-01-30T08:28:40;15.95;;;8.45;;
75993;SDS011;64680;53.800;9.988;2024-01-30T08:31:06;14.85;;;8.57;;
75993;SDS011;64680;53.800;9.988;2024-01-30T08:33:31;17.05;;;8.40;;
75993;SDS011;64680;53.800;9.988;2024-01-30T08:35:57;18.02;;;8.77;;
75993;SDS011;64680;53.800;9.988;2024-01-30T08:38:23;16.30;;;8.45;;
75993;SDS011;64680;53.800;9.988;2024-01-30T08:40:49;15.45;;;8.70;;
75993;SDS011;64680;53.800;9.988;2024-01-30T08:43:14;15.93;;;8.68;;
75993;SDS011;64680;53.800;9.988;2024-01-30T08:45:40;15.38;;;8.60;;
75993;SDS011;64680;53.800;9.988;2024-01-30T08:48:06;13.23;;;8.10;;
75993;SDS011;64680;53.800;9.988;2024-01-30T08:50:32;16.70;;;8.48;;
75993;SDS011;64680;53.800;9.988;2024-01-30T08:52:58;15.30;;;9.20;;
75993;SDS011;64680;53.800;9.988;2024-01-30T08:55:24;13.40;;;8.30;;
75993;SDS011;64680;53.800;9.988;2024-01-30T08:57:49;13.48;;;8.20;;
75993;SDS011;64680;53.800;9.988;2024-01-30T09:00:15;13.23;;;8.25;;
75993;SDS011;64680;53.800;9.988;2024-01-30T09:02:41;16.27;;;9.02;;
75993;SDS011;64680;53.800;9.988;2024-01-30T09:05:07;16.77;;;8.40;;
75993;SDS011;64680;53.800;9.988;2024-01-30T09:07:32;14.95;;;8.57;;
75993;SDS011;64680;53.800;9.988;2024-01-30T09:09:58;16.17;;;8.48;;
75993;SDS011;64680;53.800;9.988;2024-01-30T09:12:23;14.18;;;8.30;;
75993;SDS011;64680;53.800;9.988;2024-01-30T09:14:49;27.33;;;10.23;;
75993;SDS011;64680;53.800;9.988;2024-01-30T09:17:15;12.55;;;7.80;;
75993;SDS011;64680;53.800;9.988;2024-01-30T09:19:40;14.73;;;8.73;;
75993;SDS011;64680;53.800;9.988;2024-01-30T09:22:06;16.13;;;8.45;;
75993;SDS011;64680;53.800;9.988;2024-01-30T09:24:31;15.30;;;8.10;;
75993;SDS011;64680;53.800;9.988;2024-01-30T09:26:57;13.55;;;8.68;;
75993;SDS011;64680;53.800;9.988;2024-01-30T09:29:23;14.38;;;7.60;;
75993;SDS011;64680;53.800;9.988;2024-01-30T09:31:48;12.82;;;7.60;;
75993;SDS011;64680;53.800;9.988;2024-01-30T09:34:14;13.88;;;8.77;;
75993;SDS011;64680;53.800;9.988;2024-01-30T09:36:39;20.25;;;9.32;;
75993;SDS011;64680;53.800;9.988;2024-01-30T09:39:05;14.10;;;7.82;;
75993;SDS011;64680;53.800;9.988;2024-01-30T09:41:32;14.18;;;7.57;;
75993;SDS011;64680;53.800;9.988;2024-01-30T09:44:00;13.57;;;8.10;;
75993;SDS011;64680;53.800;9.988;2024-01-30T09:46:28;13.35;;;8.10;;
75993;SDS011;64680;53.800;9.988;2024-01-30T09:48:57;14.02;;;7.72;;
75993;SDS011;64680;53.800;9.988;2024-01-30T09:51:23;11.90;;;7.80;;
75993;SDS011;64680;53.800;9.988;2024-01-30T09:53:49;19.52;;;10.18;;
75993;SDS011;64680;53.800;9.988;2024-01-30T09:56:15;15.55;;;9.68;;
75993;SDS011;64680;53.800;9.988;2024-01-30T09:58:41;15.15;;;8.55;;
75993;SDS011;64680;53.800;9.988;2024-01-30T10:01:07;16.55;;;10.07;;
75993;SDS011;64680;53.800;9.988;2024-01-30T10:03:33;16.38;;;8.50;;
75993;SDS011;64680;53.800;9.988;2024-01-30T10:05:59;12.77;;;8.02;;
75993;SDS011;64680;53.800;9.988;2024-01-30T10:08:26;12.07;;;7.32;;
75993;SDS011;64680;53.800;9.988;2024-01-30T10:10:52;15.48;;;8.77;;
75993;SDS011;64680;53.800;9.988;2024-01-30T10:13:17;15.00;;;8.55;;
75993;SDS011;64680;53.800;9.988;2024-01-30T10:15:43;15.40;;;8.82;;
75993;SDS011;64680;53.800;9.988;2024-01-30T10:18:10;13.40;;;8.55;;
75993;SDS011;64680;53.800;9.988;2024-01-30T10:20:36;13.57;;;8.23;;
75993;SDS011;64680;53.800;9.988;2024-01-30T10:23:02;14.98;;;8.25;;
75993;SDS011;64680;53.800;9.988;2024-01-30T10:25:28;13.85;;;8.05;;
75993;SDS011;64680;53.800;9.988;2024-01-30T10:27:56;12.95;;;8.50;;
75993;SDS011;64680;53.800;9.988;2024-01-30T10:30:22;15.25;;;9.05;;
75993;SDS011;64680;53.800;9.988;2024-01-30T10:32:48;14.07;;;8.13;;
75993;SDS011;64680;53.800;9.988;2024-01-30T10:35:14;13.60;;;7.53;;
75993;SDS011;64680;53.800;9.988;2024-01-30T10:37:41;14.68;;;8.43;;
75993;SDS011;64680;53.800;9.988;2024-01-30T10:40:08;13.43;;;7.75;;
75993;SDS011;64680;53.800;9.988;2024-01-30T10:42:38;12.10;;;8.05;;
75993;SDS011;64680;53.800;9.988;2024-01-30T10:45:13;14.55;;;8.57;;
75993;SDS011;64680;53.800;9.988;2024-01-30T10:47:47;12.80;;;8.00;;
75993;SDS011;64680;53.800;9.988;2024-01-30T10:50:14;16.85;;;8.48;;
75993;SDS011;64680;53.800;9.988;2024-01-30T10:52:40;15.77;;;8.77;;
75993;SDS011;64680;53.800;9.988;2024-01-30T10:55:09;14.38;;;7.45;;
75993;SDS011;64680;53.800;9.988;2024-01-30T10:57:35;15.13;;;7.78;;
75993;SDS011;64680;53.800;9.988;2024-01-30T11:00:02;14.30;;;8.00;;
75993;SDS011;64680;53.800;9.988;2024-01-30T11:02:30;12.25;;;7.90;;
75993;SDS011;64680;53.800;9.988;2024-01-30T11:04:58;13.18;;;7.25;;
75993;SDS011;64680;53.800;9.988;2024-01-30T11:07:25;17.23;;;7.93;;
75993;SDS011;64680;53.800;9.988;2024-01-30T11:09:53;14.82;;;7.82;;
75993;SDS011;64680;53.800;9.988;2024-01-30T11:12:28;14.77;;;7.72;;
75993;SDS011;64680;53.800;9.988;2024-01-30T11:15:13;12.55;;;7.63;;
75993;SDS011;64680;53.800;9.988;2024-01-30T11:20:16;16.35;;;7.90;;
75993;SDS011;64680;53.800;9.988;2024-01-30T11:22:45;14.82;;;8.70;;
75993;SDS011;64680;53.800;9.988;2024-01-30T11:25:11;13.73;;;7.80;;
75993;SDS011;64680;53.800;9.988;2024-01-30T11:27:42;13.30;;;7.90;;
75993;SDS011;64680;53.800;9.988;2024-01-30T11:30:08;18.55;;;9.20;;
75993;SDS011;64680;53.800;9.988;2024-01-30T11:32:34;13.45;;;7.32;;
75993;SDS011;64680;53.800;9.988;2024-01-30T11:35:00;13.02;;;7.50;;
75993;SDS011;64680;53.800;9.988;2024-01-30T11:37:28;13.73;;;7.75;;
75993;SDS011;64680;53.800;9.988;2024-01-30T11:39:55;12.55;;;7.55;;
75993;SDS011;64680;53.800;9.988;2024-01-30T11:42:22;11.90;;;7.20;;
75993;SDS011;64680;53.800;9.988;2024-01-30T11:44:52;14.10;;;7.80;;
75993;SDS011;64680;53.800;9.988;2024-01-30T11:47:18;12.48;;;7.72;;
75993;SDS011;64680;53.800;9.988;2024-01-30T11:49:43;11.50;;;7.15;;
75993;SDS011;64680;53.800;9.988;2024-01-30T11:52:10;11.70;;;6.88;;
75993;SDS011;64680;53.800;9.988;2024-01-30T11:54:36;11.60;;;7.82;;
75993;SDS011;64680;53.800;9.988;2024-01-30T11:57:05;13.20;;;7.75;;
75993;SDS011;64680;53.800;9.988;2024-01-30T11:59:30;11.77;;;7.30;;
75993;SDS011;64680;53.800;9.988;2024-01-30T12:01:56;11.20;;;6.72;;
75993;SDS011;64680;53.800;9.988;2024-01-30T12:04:21;12.32;;;7.72;;
75993;SDS011;64680;53.800;9.988;2024-01-30T12:06:50;14.70;;;7.82;;
75993;SDS011;64680;53.800;9.988;2024-01-30T12:09:16;11.40;;;7.40;;
75993;SDS011;64680;53.800;9.988;2024-01-30T12:11:48;11.27;;;6.55;;
75993;SDS011;64680;53.800;9.988;2024-01-30T12:14:17;12.63;;;7.13;;
75993;SDS011;64680;53.800;9.988;2024-01-30T12:16:47;11.15;;;7.55;;
75993;SDS011;64680;53.800;9.988;2024-01-30T12:19:20;11.98;;;7.65;;
75993;SDS011;64680;53.800;9.988;2024-01-30T12:21:47;14.32;;;7.57;;
75993;SDS011;64680;53.800;9.988;2024-01-30T12:24:18;11.70;;;7.25;;
75993;SDS011;64680;53.800;9.988;2024-01-30T12:26:43;14.38;;;7.55;;
75993;SDS011;64680;53.800;9.988;2024-01-30T12:29:09;14.93;;;7.97;;
75993;SDS011;64680;53.800;9.988;2024-01-30T12:31:35;13.07;;;7.22;;
75993;SDS011;64680;53.800;9.988;2024-01-30T12:34:01;11.30;;;7.05;;
75993;SDS011;64680;53.800;9.988;2024-01-30T12:36:26;12.48;;;7.35;;
75993;SDS011;64680;53.800;9.988;2024-01-30T12:38:56;12.38;;;6.82;;
75993;SDS011;64680;53.800;9.988;2024-01-30T12:41:22;12.68;;;7.22;;
75993;SDS011;64680;53.800;9.988;2024-01-30T12:43:53;13.20;;;7.32;;
75993;SDS011;64680;53.800;9.988;2024-01-30T12:46:19;11.90;;;7.32;;
75993;SDS011;64680;53.800;9.988;2024-01-30T12:48:44;11.82;;;6.97;;
75993;SDS011;64680;53.800;9.988;2024-01-30T12:51:10;13.13;;;7.03;;
75993;SDS011;64680;53.800;9.988;2024-01-30T12:53:35;14.57;;;7.25;;
75993;SDS011;64680;53.800;9.988;2024-01-30T12:56:01;15.30;;;7.63;;
75993;SDS011;64680;53.800;9.988;2024-01-30T12:58:27;10.38;;;6.57;;
75993;SDS011;64680;53.800;9.988;2024-01-30T13:00:52;13.30;;;7.57;;
75993;SDS011;64680;53.800;9.988;2024-01-30T13:03:19;11.75;;;6.65;;
75993;SDS011;64680;53.800;9.988;2024-01-30T13:05:44;12.30;;;7.20;;
75993;SDS011;64680;53.800;9.988;2024-01-30T13:08:10;12.15;;;6.60;;
75993;SDS011;64680;53.800;9.988;2024-01-30T13:10:35;11.80;;;6.78;;
75993;SDS011;64680;53.800;9.988;2024-01-30T13:13:01;17.23;;;6.75;;
75993;SDS011;64680;53.800;9.988;2024-01-30T13:15:27;11.20;;;6.90;;
75993;SDS011;64680;53.800;9.988;2024-01-30T13:17:53;14.02;;;7.30;;
75993;SDS011;64680;53.800;9.988;2024-01-30T13:20:19;15.57;;;7.00;;
75993;SDS011;64680;53.800;9.988;2024-01-30T13:22:47;12.18;;;6.80;;
75993;SDS011;64680;53.800;9.988;2024-01-30T13:25:16;9.57;;;6.55;;
75993;SDS011;64680;53.800;9.988;2024-01-30T13:27:41;11.75;;;6.80;;
75993;SDS011;64680;53.800;9.988;2024-01-30T13:30:07;12.02;;;7.32;;
75993;SDS011;64680;53.800;9.988;2024-01-30T13:32:37;11.90;;;7.20;;
75993;SDS011;64680;53.800;9.988;2024-01-30T13:35:02;12.63;;;7.50;;
75993;SDS011;64680;53.800;9.988;2024-01-30T13:37:28;12.43;;;7.32;;
75993;SDS011;64680;53.800;9.988;2024-01-30T13:39:54;13.48;;;8.05;;
75993;SDS011;64680;53.800;9.988;2024-01-30T13:42:21;13.50;;;7.53;;
75993;SDS011;64680;53.800;9.988;2024-01-30T13:44:47;14.77;;;8.30;;
75993;SDS011;64680;53.800;9.988;2024-01-30T13:47:12;13.93;;;7.32;;
75993;SDS011;64680;53.800;9.988;2024-01-30T13:49:38;16.48;;;8.15;;
75993;SDS011;64680;53.800;9.988;2024-01-30T13:52:03;16.40;;;8.00;;
75993;SDS011;64680;53.800;9.988;2024-01-30T13:54:29;13.30;;;7.78;;
75993;SDS011;64680;53.800;9.988;2024-01-30T13:56:55;11.85;;;7.63;;
75993;SDS011;64680;53.800;9.988;2024-01-30T13:59:21;14.23;;;7.90;;
75993;SDS011;64680;53.800;9.988;2024-01-30T14:01:49;15.88;;;8.15;;
75993;SDS011;64680;53.800;9.988;2024-01-30T14:04:16;13.40;;;7.47;;
75993;SDS011;64680;53.800;9.988;2024-01-30T14:06:42;14.68;;;7.45;;
75993;SDS011;64680;53.800;9.988;2024-01-30T14:09:08;12.57;;;7.43;;
75993;SDS011;64680;53.800;9.988;2024-01-30T14:11:33;12.88;;;7.28;;
75993;SDS011;64680;53.800;9.988;2024-01-30T14:13:59;13.57;;;7.35;;
75993;SDS011;64680;53.800;9.988;2024-01-30T14:16:25;12.27;;;6.97;;
75993;SDS011;64680;53.800;9.988;2024-01-30T14:18:50;15.02;;;7.53;;
75993;SDS011;64680;53.800;9.988;2024-01-30T14:21:16;11.60;;;7.22;;
75993;SDS011;64680;53.800;9.988;2024-01-30T14:23:41;13.38;;;7.85;;
75993;SDS011;64680;53.800;9.988;2024-01-30T14:26:07;13.32;;;7.70;;
75993;SDS011;64680;53.800;9.988;2024-01-30T14:28:32;14.32;;;7.43;;
75993;SDS011;64680;53.800;9.988;2024-01-30T14:30:58;15.63;;;7.32;;
75993;SDS011;64680;53.800;9.988;2024-01-30T14:33:24;13.15;;;7.03;;
75993;SDS011;64680;53.800;9.988;2024-01-30T14:35:50;17.52;;;7.72;;
75993;SDS011;64680;53.800;9.988;2024-01-30T14:38:16;12.85;;;7.38;;